createdAt,value
2022-09-21T00:01:34.449Z,9.31
2022-09-21T00:04:03.985Z,9.37
2022-09-21T00:06:34.109Z,9.42
2022-09-21T00:09:05.383Z,9.47
2022-09-21T00:11:34.558Z,9.52
2022-09-21T00:14:10.473Z,9.56
2022-09-21T00:16:39.718Z,9.60
2022-09-21T00:19:08.075Z,9.63
2022-09-21T00:21:38.262Z,9.66
2022-09-21T00:24:07.076Z,9.70
2022-09-21T00:26:34.876Z,9.73
2022-09-21T00:29:04.642Z,9.74
2022-09-21T00:31:33.989Z,9.76
2022-09-21T00:34:03.684Z,9.74
2022-09-21T00:36:31.619Z,9.71
2022-09-21T00:39:01.767Z,9.73
2022-09-21T00:41:32.162Z,9.72
2022-09-21T00:44:18.565Z,9.73
2022-09-21T00:46:49.702Z,9.74
2022-09-21T00:49:17.994Z,9.76
2022-09-21T00:51:47.229Z,9.77
2022-09-21T00:54:22.973Z,9.77
2022-09-21T00:56:51.001Z,9.79
2022-09-21T00:59:21.802Z,9.79
2022-09-21T01:01:51.844Z,9.79
2022-09-21T01:04:20.383Z,9.79
2022-09-21T01:06:50.382Z,9.82
2022-09-21T01:09:19.153Z,9.84
2022-09-21T01:12:05.482Z,9.86
2022-09-21T01:14:49.458Z,9.87
2022-09-21T01:17:31.332Z,9.85
2022-09-21T01:20:28.380Z,9.84
2022-09-21T01:23:14.849Z,9.83
2022-09-21T01:26:11.813Z,9.83
2022-09-21T01:29:01.207Z,9.85
2022-09-21T01:31:39.969Z,9.85
2022-09-21T01:34:16.071Z,9.86
2022-09-21T01:36:48.377Z,9.88
2022-09-21T01:39:20.877Z,9.89
2022-09-21T01:41:52.158Z,9.91
2022-09-21T01:44:23.906Z,9.92
2022-09-21T01:46:52.650Z,9.91
2022-09-21T01:49:27.334Z,9.92
2022-09-21T01:52:07.232Z,9.91
2022-09-21T01:54:43.531Z,9.92
2022-09-21T01:57:19.203Z,9.92
2022-09-21T01:59:52.810Z,9.94
2022-09-21T02:02:32.190Z,9.96
2022-09-21T02:05:05.434Z,9.98
2022-09-21T02:07:34.826Z,10.01
2022-09-21T02:10:05.064Z,10.02
2022-09-21T02:12:33.272Z,10.04
2022-09-21T02:15:03.000Z,10.03
2022-09-21T02:17:31.219Z,10.02
2022-09-21T02:20:00.117Z,10.02
2022-09-21T02:22:57.241Z,10.04
2022-09-21T02:25:36.685Z,10.08
2022-09-21T02:28:11.387Z,10.10
2022-09-21T02:30:44.235Z,10.11
2022-09-21T02:33:28.397Z,10.13
2022-09-21T02:36:36.319Z,10.13
2022-09-21T02:39:10.911Z,10.16
2022-09-21T02:42:08.618Z,10.18
2022-09-21T02:44:41.273Z,10.20
2022-09-21T02:47:21.836Z,10.21
2022-09-21T02:49:54.804Z,10.23
2022-09-21T02:52:25.314Z,10.21
2022-09-21T02:54:55.752Z,10.18
2022-09-21T02:57:24.567Z,10.18
2022-09-21T02:59:52.795Z,10.19
2022-09-21T03:02:20.597Z,10.19
2022-09-21T03:04:49.994Z,10.20
2022-09-21T03:07:18.073Z,10.21
2022-09-21T03:09:46.644Z,10.24
2022-09-21T03:12:14.438Z,10.26
2022-09-21T03:14:42.695Z,10.26
2022-09-21T03:17:10.426Z,10.27
2022-09-21T03:19:38.218Z,10.28
2022-09-21T03:22:05.999Z,10.28
2022-09-21T03:24:46.389Z,10.28
2022-09-21T03:27:20.667Z,10.30
2022-09-21T03:29:48.533Z,10.32
2022-09-21T03:32:16.386Z,10.32
2022-09-21T03:34:44.189Z,10.32
2022-09-21T03:37:12.214Z,10.34
2022-09-21T03:39:40.130Z,10.33
2022-09-21T03:42:09.210Z,10.32
2022-09-21T03:44:37.611Z,10.29
2022-09-21T03:47:06.679Z,10.30
2022-09-21T03:49:35.168Z,10.33
2022-09-21T03:52:03.642Z,10.34
2022-09-21T03:54:31.512Z,10.35
2022-09-21T03:56:59.407Z,10.35
2022-09-21T03:59:27.370Z,10.36
2022-09-21T04:01:55.173Z,10.35
2022-09-21T04:04:23.283Z,10.35
2022-09-21T04:06:51.725Z,10.35
2022-09-21T04:09:19.633Z,10.33
2022-09-21T04:11:48.320Z,10.32
2022-09-21T04:14:16.115Z,10.33
2022-09-21T04:16:43.877Z,10.33
2022-09-21T04:19:12.664Z,10.35
2022-09-21T04:21:40.532Z,10.36
2022-09-21T04:24:08.588Z,10.36
2022-09-21T04:26:36.881Z,10.35
2022-09-21T04:29:05.319Z,10.31
2022-09-21T04:31:33.535Z,10.32
2022-09-21T04:34:01.280Z,10.35
2022-09-21T04:36:34.379Z,10.36
2022-09-21T04:39:05.742Z,10.39
2022-09-21T04:41:33.544Z,10.40
2022-09-21T04:44:02.156Z,10.43
2022-09-21T04:46:30.147Z,10.45
2022-09-21T04:48:57.903Z,10.44
2022-09-21T04:51:25.778Z,10.44
2022-09-21T04:53:53.813Z,10.44
2022-09-21T04:56:21.621Z,10.44
2022-09-21T04:58:49.684Z,10.43
2022-09-21T05:01:17.568Z,10.45
2022-09-21T05:03:45.487Z,10.46
2022-09-21T05:06:13.689Z,10.48
2022-09-21T05:09:00.385Z,10.50
2022-09-21T05:11:28.387Z,10.52
2022-09-21T05:13:56.202Z,10.53
2022-09-21T05:16:24.010Z,10.55
2022-09-21T05:18:55.149Z,10.56
2022-09-21T05:21:23.894Z,10.58
2022-09-21T05:23:51.907Z,10.62
2022-09-21T05:26:20.841Z,10.64
2022-09-21T05:28:49.796Z,10.65
2022-09-21T05:31:18.467Z,10.66
2022-09-21T05:34:03.966Z,10.68
2022-09-21T05:37:02.712Z,10.67
2022-09-21T05:39:31.164Z,10.69
2022-09-21T05:41:59.429Z,10.71
2022-09-21T05:44:27.790Z,10.69
2022-09-21T05:47:36.327Z,10.64
2022-09-21T05:50:19.121Z,10.68
2022-09-21T05:53:02.286Z,10.67
2022-09-21T05:55:48.582Z,10.69
2022-09-21T05:58:40.593Z,10.68
2022-09-21T06:01:11.396Z,10.68
2022-09-21T06:03:42.106Z,10.69
